Time,TemperatureF,DewpointF,PressureIn,WindDirection,WindDirectionDegrees,WindSpeedMPH,WindSpeedGustMPH,Humidity,HourlyPrecipIn,Conditions,Clouds,dailyrainin,SolarRadiationWatts/m^2,SoftwareType,DateUTC
2014-01-16 00:03:00,33.0,26.0,-100.00,NNE,30,1.0,8.0,76,0.00,,,0.00,5.000000,,2014-01-16 06:03:00,
2014-01-16 00:12:00,33.0,26.0,-100.00,NNE,30,1.0,8.0,76,0.00,,,0.00,5.000000,,2014-01-16 06:12:00,
2014-01-16 00:22:00,33.0,26.0,-100.00,NNE,30,1.0,8.0,76,0.00,,,0.00,5.000000,,2014-01-16 06:22:00,
2014-01-16 01:21:00,29.0,24.0,-100.00,West,275,1.0,2.0,82,0.00,,,0.00,5.000000,,2014-01-16 07:21:00,
2014-01-16 02:22:00,27.0,25.0,-100.00,North,-999,0.0,2.0,92,0.00,,,0.00,5.000000,,2014-01-16 08:22:00,
2014-01-16 02:53:00,27.0,26.0,-100.00,North,-999,0.0,2.0,95,0.00,,,0.00,5.000000,,2014-01-16 08:53:00,
2014-01-16 03:02:00,27.0,26.0,-100.00,North,-999,0.0,2.0,95,0.00,,,0.00,5.000000,,2014-01-16 09:02:00,
2014-01-16 03:11:00,27.0,26.0,-100.00,North,-999,0.0,2.0,95,0.00,,,0.00,5.000000,,2014-01-16 09:11:00,
2014-01-16 03:21:00,27.0,26.0,-100.00,North,-999,0.0,2.0,95,0.00,,,0.00,5.000000,,2014-01-16 09:21:00,
2014-01-16 03:53:00,26.0,25.0,-100.00,North,-999,0.0,2.0,94,0.00,,,0.00,5.000000,,2014-01-16 09:53:00,
2014-01-16 04:03:00,26.0,25.0,-100.00,North,-999,0.0,2.0,94,0.00,,,0.00,5.000000,,2014-01-16 10:03:00,
2014-01-16 04:12:00,26.0,25.0,-100.00,North,-999,0.0,2.0,94,0.00,,,0.00,5.000000,,2014-01-16 10:12:00,
2014-01-16 04:23:00,26.0,25.0,-100.00,North,-999,0.0,2.0,94,0.00,,,0.00,5.000000,,2014-01-16 10:23:00,
2014-01-16 04:53:00,26.0,25.0,-100.00,NE,55,1.0,2.0,96,0.00,,,0.00,5.000000,,2014-01-16 10:53:00,
2014-01-16 05:02:00,26.0,25.0,-100.00,NE,55,1.0,2.0,96,0.00,,,0.00,5.000000,,2014-01-16 11:02:00,
2014-01-16 05:12:00,26.0,25.0,-100.00,NE,55,1.0,2.0,96,0.00,,,0.00,5.000000,,2014-01-16 11:12:00,
2014-01-16 05:22:00,26.0,25.0,-100.00,NE,55,1.0,2.0,96,0.00,,,0.00,5.000000,,2014-01-16 11:22:00,
2014-01-16 05:53:00,25.0,24.0,-100.00,North,-999,0.0,0.0,96,0.00,,,0.00,5.000000,,2014-01-16 11:53:00,
2014-01-16 06:02:00,25.0,24.0,-100.00,North,-999,0.0,0.0,96,0.00,,,0.00,5.000000,,2014-01-16 12:02:00,
2014-01-16 06:11:00,25.0,24.0,-100.00,North,-999,0.0,0.0,96,0.00,,,0.00,5.000000,,2014-01-16 12:11:00,
2014-01-16 06:21:00,25.0,24.0,-100.00,North,-999,0.0,0.0,96,0.00,,,0.00,5.000000,,2014-01-16 12:21:00,
2014-01-16 06:52:00,25.0,24.0,-100.00,North,-999,0.0,2.0,96,0.00,,,0.00,5.000000,,2014-01-16 12:52:00,
2014-01-16 07:02:00,25.0,24.0,-100.00,North,-999,0.0,2.0,96,0.00,,,0.00,5.000000,,2014-01-16 13:02:00,
2014-01-16 07:12:00,25.0,24.0,-100.00,North,-999,0.0,2.0,96,0.00,,,0.00,5.000000,,2014-01-16 13:12:00,
2014-01-16 07:21:00,25.0,24.0,-100.00,North,-999,0.0,2.0,96,0.00,,,0.00,5.000000,,2014-01-16 13:21:00,
2014-01-16 07:52:00,26.0,25.0,-100.00,North,-999,0.0,2.0,96,0.00,,,0.00,10.000000,,2014-01-16 13:52:00,
2014-01-16 08:02:00,26.0,25.0,-100.00,North,-999,0.0,2.0,96,0.00,,,0.00,10.000000,,2014-01-16 14:02:00,
2014-01-16 08:11:00,26.0,25.0,-100.00,North,-999,0.0,2.0,96,0.00,,,0.00,10.000000,,2014-01-16 14:11:00,
2014-01-16 08:21:00,26.0,25.0,-100.00,North,-999,0.0,2.0,96,0.00,,,0.00,10.000000,,2014-01-16 14:21:00,
2014-01-16 09:11:00,39.0,31.0,-100.00,North,350,1.0,2.0,72,0.00,,,0.00,203.000000,,2014-01-16 15:11:00,
2014-01-16 10:13:00,44.0,15.0,-100.00,SE,134,3.0,5.0,30,0.00,,,0.00,420.000000,,2014-01-16 16:13:00,
2014-01-16 10:23:00,44.0,15.0,-100.00,SE,134,3.0,5.0,30,0.00,,,0.00,420.000000,,2014-01-16 16:23:00,
2014-01-16 10:53:00,47.0,15.0,-100.00,SSE,155,5.0,10.0,27,0.00,,,0.00,595.000000,,2014-01-16 16:53:00,
2014-01-16 11:02:00,47.0,15.0,-100.00,SSE,155,5.0,10.0,27,0.00,,,0.00,595.000000,,2014-01-16 17:02:00,
2014-01-16 11:12:00,47.0,15.0,-100.00,SSE,155,5.0,10.0,27,0.00,,,0.00,595.000000,,2014-01-16 17:12:00,
2014-01-16 11:22:00,47.0,15.0,-100.00,SSE,155,5.0,10.0,27,0.00,,,0.00,595.000000,,2014-01-16 17:22:00,
2014-01-16 11:52:00,50.0,20.0,-100.00,SW,236,4.0,9.0,30,0.00,,,0.00,711.000000,,2014-01-16 17:52:00,
2014-01-16 12:02:00,50.0,20.0,-100.00,SW,236,4.0,9.0,30,0.00,,,0.00,711.000000,,2014-01-16 18:02:00,
2014-01-16 12:11:00,50.0,20.0,-100.00,SW,236,4.0,9.0,30,0.00,,,0.00,711.000000,,2014-01-16 18:11:00,
2014-01-16 12:22:00,50.0,20.0,-100.00,SW,236,4.0,9.0,30,0.00,,,0.00,711.000000,,2014-01-16 18:22:00,
2014-01-16 12:52:00,52.0,25.0,-100.00,SSW,200,5.0,11.0,34,0.00,,,0.00,755.000000,,2014-01-16 18:52:00,
2014-01-16 13:01:00,52.0,25.0,-100.00,SSW,200,5.0,11.0,34,0.00,,,0.00,755.000000,,2014-01-16 19:01:00,
2014-01-16 13:12:00,52.0,25.0,-100.00,SSW,200,5.0,11.0,34,0.00,,,0.00,755.000000,,2014-01-16 19:12:00,
2014-01-16 13:21:00,52.0,25.0,-100.00,SSW,200,5.0,11.0,34,0.00,,,0.00,755.000000,,2014-01-16 19:21:00,
2014-01-16 13:52:00,52.0,25.0,-100.00,SW,235,6.0,11.0,34,0.00,,,0.00,729.000000,,2014-01-16 19:52:00,
2014-01-16 14:02:00,52.0,25.0,-100.00,SW,235,6.0,11.0,34,0.00,,,0.00,729.000000,,2014-01-16 20:02:00,
2014-01-16 14:11:00,52.0,25.0,-100.00,SW,235,6.0,11.0,34,0.00,,,0.00,729.000000,,2014-01-16 20:11:00,
2014-01-16 14:22:00,52.0,25.0,-100.00,SW,235,6.0,11.0,34,0.00,,,0.00,729.000000,,2014-01-16 20:22:00,
2014-01-16 14:52:00,53.0,27.0,-100.00,SW,214,6.0,11.0,36,0.00,,,0.00,626.000000,,2014-01-16 20:52:00,
2014-01-16 15:02:00,53.0,27.0,-100.00,SW,214,6.0,11.0,36,0.00,,,0.00,626.000000,,2014-01-16 21:02:00,
2014-01-16 15:11:00,53.0,27.0,-100.00,SW,214,6.0,11.0,36,0.00,,,0.00,626.000000,,2014-01-16 21:11:00,
2014-01-16 15:21:00,53.0,27.0,-100.00,SW,214,6.0,11.0,36,0.00,,,0.00,626.000000,,2014-01-16 21:21:00,
2014-01-16 15:53:00,53.0,29.0,-100.00,SSW,212,5.0,11.0,40,0.00,,,0.00,460.000000,,2014-01-16 21:53:00,
2014-01-16 16:03:00,53.0,29.0,-100.00,SSW,212,5.0,11.0,40,0.00,,,0.00,460.000000,,2014-01-16 22:03:00,
2014-01-16 16:13:00,53.0,29.0,-100.00,SSW,212,5.0,11.0,40,0.00,,,0.00,460.000000,,2014-01-16 22:13:00,
2014-01-16 16:23:00,53.0,29.0,-100.00,SSW,212,5.0,11.0,40,0.00,,,0.00,460.000000,,2014-01-16 22:23:00,
2014-01-16 16:52:00,52.0,30.0,-100.00,SW,219,4.0,11.0,43,0.00,,,0.00,253.000000,,2014-01-16 22:52:00,
2014-01-16 17:02:00,52.0,30.0,-100.00,SW,219,4.0,11.0,43,0.00,,,0.00,253.000000,,2014-01-16 23:02:00,
2014-01-16 17:12:00,52.0,30.0,-100.00,SW,219,4.0,11.0,43,0.00,,,0.00,253.000000,,2014-01-16 23:12:00,
2014-01-16 17:22:00,52.0,30.0,-100.00,SW,219,4.0,11.0,43,0.00,,,0.00,253.000000,,2014-01-16 23:22:00,
2014-01-16 17:53:00,47.0,33.0,-100.00,SW,216,2.0,12.0,58,0.00,,,0.00,48.000000,,2014-01-16 23:53:00,
2014-01-16 18:02:00,47.0,33.0,-100.00,SW,216,2.0,12.0,58,0.00,,,0.00,48.000000,,2014-01-17 00:02:00,
2014-01-16 18:11:00,47.0,33.0,-100.00,SW,216,2.0,12.0,58,0.00,,,0.00,48.000000,,2014-01-17 00:11:00,
2014-01-16 18:21:00,47.0,33.0,-100.00,SW,216,2.0,12.0,58,0.00,,,0.00,48.000000,,2014-01-17 00:21:00,
2014-01-16 18:53:00,42.0,35.0,-100.00,SSE,168,2.0,5.0,76,0.00,,,-99.99,11.000000,,2014-01-17 00:53:00,
2014-01-16 19:01:00,42.0,35.0,-100.00,SSE,168,2.0,5.0,76,0.00,,,-99.99,11.000000,,2014-01-17 01:01:00,
2014-01-16 19:12:00,42.0,35.0,-100.00,SSE,168,2.0,5.0,76,0.00,,,-99.99,11.000000,,2014-01-17 01:12:00,
2014-01-16 19:22:00,42.0,35.0,-100.00,SSE,168,2.0,5.0,76,0.00,,,-99.99,11.000000,,2014-01-17 01:22:00,
2014-01-16 20:52:00,48.0,39.0,-100.00,SSW,210,3.0,9.0,71,-99.99,,,0.00,11.000000,,2014-01-17 02:52:00,
2014-01-16 21:02:00,48.0,39.0,-100.00,SSW,210,3.0,9.0,71,-99.99,,,0.00,11.000000,,2014-01-17 03:02:00,
2014-01-16 21:11:00,48.0,39.0,-100.00,SSW,210,3.0,9.0,71,-99.99,,,0.00,11.000000,,2014-01-17 03:11:00,
2014-01-16 21:22:00,48.0,39.0,-100.00,SSW,210,3.0,9.0,71,-99.99,,,0.00,11.000000,,2014-01-17 03:22:00,
2014-01-16 21:54:00,50.0,39.0,-100.00,SW,232,4.0,9.0,65,0.00,,,0.00,11.000000,,2014-01-17 03:54:00,
2014-01-16 22:04:00,50.0,39.0,-100.00,SW,232,4.0,9.0,65,0.00,,,0.00,11.000000,,2014-01-17 04:04:00,
2014-01-16 22:13:00,50.0,39.0,-100.00,SW,232,4.0,9.0,65,0.00,,,0.00,11.000000,,2014-01-17 04:13:00,
2014-01-16 22:23:00,50.0,39.0,-100.00,SW,232,4.0,9.0,65,0.00,,,0.00,11.000000,,2014-01-17 04:23:00,
2014-01-16 22:52:00,50.0,38.0,-100.00,SW,234,4.0,10.0,62,0.00,,,0.00,10.000000,,2014-01-17 04:52:00,
2014-01-16 23:02:00,50.0,38.0,-100.00,SW,234,4.0,10.0,62,0.00,,,0.00,10.000000,,2014-01-17 05:02:00,
2014-01-16 23:12:00,50.0,38.0,-100.00,SW,234,4.0,10.0,62,0.00,,,0.00,10.000000,,2014-01-17 05:12:00,
2014-01-16 23:22:00,50.0,38.0,-100.00,SW,234,4.0,10.0,62,0.00,,,0.00,10.000000,,2014-01-17 05:22:00,
2014-01-16 23:53:00,50.0,38.0,-100.00,WSW,237,4.0,10.0,64,0.00,,,0.00,5.000000,,2014-01-17 05:53:00,